<?xml version="1.0" encoding="UTF-8" standalone="no" ?>
<gpx xmlns="http://www.topografix.com/GPX/1/1" creator="MapSource 6.11.6" version="1.1" xmlns:xsi="http://www.w3.org/2001/XMLSchema-instance" xsi:schemaLocation="http://www.topografix.com/GPX/1/1 http://www.topografix.com/GPX/1/1/gpx.xsd">

  <metadata>
    <link href="http://www.garmin.com">
      <text>Garmin International</text>
    </link>
    <time>2009-07-10T18:06:18Z</time>
    <bounds maxlat="50.533467" maxlon="6.286133" minlat="50.505100" minlon="6.247250"/>
  </metadata>

  <trk>
    <name>Hoefen-Fuhrtsbachtal</name>
    <extensions>
      <gpxx:TrackExtension xmlns:gpxx="http://www.garmin.com/xmlschemas/GpxExtensions/v3" xmlns:xsi="http://www.w3.org/2001/XMLSchema-instance" xsi:schemaLocation="http://www.garmin.com/xmlschemas/GpxExtensions/v3 http://www.garmin.com/xmlschemas/GpxExtensions/v3/GpxExtensionsv3.xsd">
        <gpxx:DisplayColor>White</gpxx:DisplayColor>
      </gpxx:TrackExtension>
    </extensions>
    <trkseg>
      <trkpt lat="50.533467" lon="6.253850">
        <ele>545.000000</ele>
        <time>2008-04-03T15:34:28Z</time>
      </trkpt>
      <trkpt lat="50.533067" lon="6.252833">
        <ele>538.000000</ele>
        <time>2008-04-03T15:34:59Z</time>
      </trkpt>
      <trkpt lat="50.532933" lon="6.251833">
        <ele>534.000000</ele>
        <time>2008-04-03T15:35:25Z</time>
      </trkpt>
      <trkpt lat="50.532850" lon="6.250733">
        <ele>535.000000</ele>
        <time>2008-04-03T15:35:53Z</time>
      </trkpt>
      <trkpt lat="50.532833" lon="6.250467">
        <ele>535.000000</ele>
        <time>2008-04-03T15:36:00Z</time>
      </trkpt>
      <trkpt lat="50.533000" lon="6.248533">
        <ele>525.000000</ele>
        <time>2008-04-03T15:36:49Z</time>
      </trkpt>
      <trkpt lat="50.532983" lon="6.248200">
        <ele>525.000000</ele>
        <time>2008-04-03T15:36:58Z</time>
      </trkpt>
      <trkpt lat="50.532917" lon="6.247900">
        <ele>526.000000</ele>
        <time>2008-04-03T15:37:06Z</time>
      </trkpt>
      <trkpt lat="50.532833" lon="6.247667">
        <ele>526.000000</ele>
        <time>2008-04-03T15:37:13Z</time>
      </trkpt>
      <trkpt lat="50.532633" lon="6.247267">
        <ele>526.000000</ele>
        <time>2008-04-03T15:37:26Z</time>
      </trkpt>
      <trkpt lat="50.532350" lon="6.247250">
        <ele>526.000000</ele>
        <time>2008-04-03T15:37:37Z</time>
      </trkpt>
      <trkpt lat="50.532133" lon="6.247350">
        <ele>526.000000</ele>
        <time>2008-04-03T15:37:46Z</time>
      </trkpt>
      <trkpt lat="50.532133" lon="6.247533">
        <ele>526.000000</ele>
        <time>2008-04-03T15:37:51Z</time>
      </trkpt>
      <trkpt lat="50.532000" lon="6.248150">
        <ele>508.000000</ele>
        <time>2008-04-03T15:38:07Z</time>
      </trkpt>
      <trkpt lat="50.531917" lon="6.249383">
        <ele>516.000000</ele>
        <time>2008-04-03T15:38:39Z</time>
      </trkpt>
      <trkpt lat="50.531683" lon="6.249900">
        <ele>524.000000</ele>
        <time>2008-04-03T15:38:55Z</time>
      </trkpt>
      <trkpt lat="50.531200" lon="6.250133">
        <ele>508.000000</ele>
        <time>2008-04-03T15:39:15Z</time>
      </trkpt>
      <trkpt lat="50.530783" lon="6.250300">
        <ele>508.000000</ele>
        <time>2008-04-03T15:39:32Z</time>
      </trkpt>
      <trkpt lat="50.530267" lon="6.250450">
        <ele>517.000000</ele>
        <time>2008-04-03T15:39:53Z</time>
      </trkpt>
      <trkpt lat="50.529983" lon="6.250450">
        <ele>517.000000</ele>
        <time>2008-04-03T15:40:05Z</time>
      </trkpt>
      <trkpt lat="50.529450" lon="6.250583">
        <ele>511.000000</ele>
        <time>2008-04-03T15:40:26Z</time>
      </trkpt>
      <trkpt lat="50.528783" lon="6.250450">
        <ele>511.000000</ele>
        <time>2008-04-03T15:40:53Z</time>
      </trkpt>
      <trkpt lat="50.528500" lon="6.250683">
        <ele>501.000000</ele>
        <time>2008-04-03T15:41:06Z</time>
      </trkpt>
      <trkpt lat="50.527900" lon="6.251417">
        <ele>518.000000</ele>
        <time>2008-04-03T15:41:37Z</time>
      </trkpt>
      <trkpt lat="50.527717" lon="6.251067">
        <ele>502.000000</ele>
        <time>2008-04-03T15:41:48Z</time>
      </trkpt>
      <trkpt lat="50.527600" lon="6.251100">
        <ele>502.000000</ele>
        <time>2008-04-03T15:41:53Z</time>
      </trkpt>
      <trkpt lat="50.526967" lon="6.251950">
        <ele>497.000000</ele>
        <time>2008-04-03T15:42:26Z</time>
      </trkpt>
      <trkpt lat="50.526717" lon="6.252183">
        <ele>500.000000</ele>
        <time>2008-04-03T15:42:38Z</time>
      </trkpt>
      <trkpt lat="50.526600" lon="6.252333">
        <ele>500.000000</ele>
        <time>2008-04-03T15:42:44Z</time>
      </trkpt>
      <trkpt lat="50.526533" lon="6.252667">
        <ele>500.000000</ele>
        <time>2008-04-03T15:42:53Z</time>
      </trkpt>
      <trkpt lat="50.526567" lon="6.252983">
        <ele>504.000000</ele>
        <time>2008-04-03T15:43:01Z</time>
      </trkpt>
      <trkpt lat="50.526700" lon="6.253617">
        <ele>504.000000</ele>
        <time>2008-04-03T15:43:18Z</time>
      </trkpt>
      <trkpt lat="50.526900" lon="6.254117">
        <ele>497.000000</ele>
        <time>2008-04-03T15:43:33Z</time>
      </trkpt>
      <trkpt lat="50.527233" lon="6.255017">
        <ele>520.000000</ele>
        <time>2008-04-03T15:43:59Z</time>
      </trkpt>
      <trkpt lat="50.527533" lon="6.256033">
        <ele>513.000000</ele>
        <time>2008-04-03T15:44:28Z</time>
      </trkpt>
      <trkpt lat="50.527733" lon="6.256617">
        <ele>506.000000</ele>
        <time>2008-04-03T15:44:45Z</time>
      </trkpt>
      <trkpt lat="50.527733" lon="6.256767">
        <ele>506.000000</ele>
        <time>2008-04-03T15:44:49Z</time>
      </trkpt>
      <trkpt lat="50.527883" lon="6.257050">
        <ele>506.000000</ele>
        <time>2008-04-03T15:44:58Z</time>
      </trkpt>
      <trkpt lat="50.528133" lon="6.257783">
        <ele>523.000000</ele>
        <time>2008-04-03T15:45:19Z</time>
      </trkpt>
      <trkpt lat="50.528133" lon="6.258650">
        <ele>519.000000</ele>
        <time>2008-04-03T15:45:41Z</time>
      </trkpt>
      <trkpt lat="50.527683" lon="6.258667">
        <ele>517.000000</ele>
        <time>2008-04-03T15:45:59Z</time>
      </trkpt>
      <trkpt lat="50.527567" lon="6.258450">
        <ele>517.000000</ele>
        <time>2008-04-03T15:46:07Z</time>
      </trkpt>
      <trkpt lat="50.527350" lon="6.258050">
        <ele>517.000000</ele>
        <time>2008-04-03T15:46:20Z</time>
      </trkpt>
      <trkpt lat="50.527150" lon="6.257683">
        <ele>511.000000</ele>
        <time>2008-04-03T15:46:32Z</time>
      </trkpt>
      <trkpt lat="50.526950" lon="6.257500">
        <ele>516.000000</ele>
        <time>2008-04-03T15:46:41Z</time>
      </trkpt>
      <trkpt lat="50.526750" lon="6.257367">
        <ele>516.000000</ele>
        <time>2008-04-03T15:46:50Z</time>
      </trkpt>
      <trkpt lat="50.526550" lon="6.257350">
        <ele>516.000000</ele>
        <time>2008-04-03T15:46:58Z</time>
      </trkpt>
      <trkpt lat="50.526367" lon="6.257350">
        <ele>516.000000</ele>
        <time>2008-04-03T15:47:05Z</time>
      </trkpt>
      <trkpt lat="50.526000" lon="6.257483">
        <ele>515.000000</ele>
        <time>2008-04-03T15:47:21Z</time>
      </trkpt>
      <trkpt lat="50.525850" lon="6.257433">
        <ele>515.000000</ele>
        <time>2008-04-03T15:47:27Z</time>
      </trkpt>
      <trkpt lat="50.525283" lon="6.257317">
        <ele>517.000000</ele>
        <time>2008-04-03T15:47:50Z</time>
      </trkpt>
      <trkpt lat="50.524883" lon="6.257217">
        <ele>517.000000</ele>
        <time>2008-04-03T15:48:06Z</time>
      </trkpt>
      <trkpt lat="50.524617" lon="6.257183">
        <ele>517.000000</ele>
        <time>2008-04-03T15:48:16Z</time>
      </trkpt>
      <trkpt lat="50.524333" lon="6.257117">
        <ele>520.000000</ele>
        <time>2008-04-03T15:48:28Z</time>
      </trkpt>
      <trkpt lat="50.524033" lon="6.256917">
        <ele>501.000000</ele>
        <time>2008-04-03T15:48:41Z</time>
      </trkpt>
      <trkpt lat="50.523717" lon="6.256667">
        <ele>498.000000</ele>
        <time>2008-04-03T15:48:55Z</time>
      </trkpt>
      <trkpt lat="50.523533" lon="6.256567">
        <ele>498.000000</ele>
        <time>2008-04-03T15:49:03Z</time>
      </trkpt>
      <trkpt lat="50.523450" lon="6.256583">
        <ele>498.000000</ele>
        <time>2008-04-03T15:49:06Z</time>
      </trkpt>
      <trkpt lat="50.523350" lon="6.256600">
        <ele>498.000000</ele>
        <time>2008-04-03T15:49:10Z</time>
      </trkpt>
      <trkpt lat="50.523283" lon="6.256717">
        <ele>498.000000</ele>
        <time>2008-04-03T15:49:14Z</time>
      </trkpt>
      <trkpt lat="50.523167" lon="6.256867">
        <ele>498.000000</ele>
        <time>2008-04-03T15:49:20Z</time>
      </trkpt>
      <trkpt lat="50.523000" lon="6.257100">
        <ele>515.000000</ele>
        <time>2008-04-03T15:49:29Z</time>
      </trkpt>
      <trkpt lat="50.522617" lon="6.257567">
        <ele>511.000000</ele>
        <time>2008-04-03T15:49:49Z</time>
      </trkpt>
      <trkpt lat="50.522417" lon="6.257717">
        <ele>511.000000</ele>
        <time>2008-04-03T15:49:58Z</time>
      </trkpt>
      <trkpt lat="50.522167" lon="6.257900">
        <ele>511.000000</ele>
        <time>2008-04-03T15:50:09Z</time>
      </trkpt>
      <trkpt lat="50.521750" lon="6.258033">
        <ele>509.000000</ele>
        <time>2008-04-03T15:50:26Z</time>
      </trkpt>
      <trkpt lat="50.521267" lon="6.258183">
        <ele>509.000000</ele>
        <time>2008-04-03T15:50:45Z</time>
      </trkpt>
      <trkpt lat="50.520967" lon="6.258267">
        <ele>507.000000</ele>
        <time>2008-04-03T15:50:58Z</time>
      </trkpt>
      <trkpt lat="50.520800" lon="6.258233">
        <ele>507.000000</ele>
        <time>2008-04-03T15:51:04Z</time>
      </trkpt>
      <trkpt lat="50.520583" lon="6.258333">
        <ele>507.000000</ele>
        <time>2008-04-03T15:51:13Z</time>
      </trkpt>
      <trkpt lat="50.520217" lon="6.258333">
        <ele>510.000000</ele>
        <time>2008-04-03T15:51:28Z</time>
      </trkpt>
      <trkpt lat="50.519900" lon="6.258317">
        <ele>510.000000</ele>
        <time>2008-04-03T15:51:41Z</time>
      </trkpt>
      <trkpt lat="50.519450" lon="6.258450">
        <ele>507.000000</ele>
        <time>2008-04-03T15:51:59Z</time>
      </trkpt>
      <trkpt lat="50.519183" lon="6.258633">
        <ele>507.000000</ele>
        <time>2008-04-03T15:52:11Z</time>
      </trkpt>
      <trkpt lat="50.519017" lon="6.258917">
        <ele>512.000000</ele>
        <time>2008-04-03T15:52:20Z</time>
      </trkpt>
      <trkpt lat="50.518833" lon="6.259717">
        <ele>518.000000</ele>
        <time>2008-04-03T15:52:42Z</time>
      </trkpt>
      <trkpt lat="50.519250" lon="6.260750">
        <ele>517.000000</ele>
        <time>2008-04-03T15:53:13Z</time>
      </trkpt>
      <trkpt lat="50.519250" lon="6.261400">
        <ele>515.000000</ele>
        <time>2008-04-03T15:53:30Z</time>
      </trkpt>
      <trkpt lat="50.519067" lon="6.262217">
        <ele>522.000000</ele>
        <time>2008-04-03T15:53:52Z</time>
      </trkpt>
      <trkpt lat="50.518850" lon="6.262950">
        <ele>530.000000</ele>
        <time>2008-04-03T15:54:12Z</time>
      </trkpt>
      <trkpt lat="50.518650" lon="6.263617">
        <ele>513.000000</ele>
        <time>2008-04-03T15:54:31Z</time>
      </trkpt>
      <trkpt lat="50.518617" lon="6.264333">
        <ele>514.000000</ele>
        <time>2008-04-03T15:54:49Z</time>
      </trkpt>
      <trkpt lat="50.518583" lon="6.264717">
        <ele>515.000000</ele>
        <time>2008-04-03T15:54:59Z</time>
      </trkpt>
      <trkpt lat="50.518550" lon="6.265117">
        <ele>515.000000</ele>
        <time>2008-04-03T15:55:10Z</time>
      </trkpt>
      <trkpt lat="50.518583" lon="6.265483">
        <ele>517.000000</ele>
        <time>2008-04-03T15:55:19Z</time>
      </trkpt>
      <trkpt lat="50.518650" lon="6.265850">
        <ele>517.000000</ele>
        <time>2008-04-03T15:55:29Z</time>
      </trkpt>
      <trkpt lat="50.518700" lon="6.266383">
        <ele>519.000000</ele>
        <time>2008-04-03T15:55:42Z</time>
      </trkpt>
      <trkpt lat="50.518750" lon="6.267150">
        <ele>521.000000</ele>
        <time>2008-04-03T15:56:02Z</time>
      </trkpt>
      <trkpt lat="50.518783" lon="6.267650">
        <ele>535.000000</ele>
        <time>2008-04-03T15:56:15Z</time>
      </trkpt>
      <trkpt lat="50.518867" lon="6.268117">
        <ele>533.000000</ele>
        <time>2008-04-03T15:56:27Z</time>
      </trkpt>
      <trkpt lat="50.519033" lon="6.268883">
        <ele>530.000000</ele>
        <time>2008-04-03T15:56:48Z</time>
      </trkpt>
      <trkpt lat="50.519217" lon="6.269550">
        <ele>530.000000</ele>
        <time>2008-04-03T15:57:06Z</time>
      </trkpt>
      <trkpt lat="50.519250" lon="6.269850">
        <ele>526.000000</ele>
        <time>2008-04-03T15:57:14Z</time>
      </trkpt>
      <trkpt lat="50.519200" lon="6.270333">
        <ele>526.000000</ele>
        <time>2008-04-03T15:57:27Z</time>
      </trkpt>
      <trkpt lat="50.519133" lon="6.270983">
        <ele>529.000000</ele>
        <time>2008-04-03T15:57:43Z</time>
      </trkpt>
      <trkpt lat="50.519167" lon="6.271217">
        <ele>529.000000</ele>
        <time>2008-04-03T15:57:49Z</time>
      </trkpt>
      <trkpt lat="50.519350" lon="6.271383">
        <ele>533.000000</ele>
        <time>2008-04-03T15:57:58Z</time>
      </trkpt>
      <trkpt lat="50.519383" lon="6.271533">
        <ele>533.000000</ele>
        <time>2008-04-03T15:58:02Z</time>
      </trkpt>
      <trkpt lat="50.519383" lon="6.271733">
        <ele>533.000000</ele>
        <time>2008-04-03T15:58:07Z</time>
      </trkpt>
      <trkpt lat="50.519333" lon="6.271850">
        <ele>533.000000</ele>
        <time>2008-04-03T15:58:11Z</time>
      </trkpt>
      <trkpt lat="50.519233" lon="6.272017">
        <ele>533.000000</ele>
        <time>2008-04-03T15:58:16Z</time>
      </trkpt>
      <trkpt lat="50.519100" lon="6.272100">
        <ele>535.000000</ele>
        <time>2008-04-03T15:58:22Z</time>
      </trkpt>
      <trkpt lat="50.518800" lon="6.272133">
        <ele>535.000000</ele>
        <time>2008-04-03T15:58:34Z</time>
      </trkpt>
      <trkpt lat="50.518617" lon="6.272117">
        <ele>524.000000</ele>
        <time>2008-04-03T15:58:42Z</time>
      </trkpt>
      <trkpt lat="50.518483" lon="6.271917">
        <ele>523.000000</ele>
        <time>2008-04-03T15:58:49Z</time>
      </trkpt>
      <trkpt lat="50.518400" lon="6.271667">
        <ele>523.000000</ele>
        <time>2008-04-03T15:58:56Z</time>
      </trkpt>
      <trkpt lat="50.518350" lon="6.271417">
        <ele>523.000000</ele>
        <time>2008-04-03T15:59:03Z</time>
      </trkpt>
      <trkpt lat="50.518267" lon="6.271383">
        <ele>523.000000</ele>
        <time>2008-04-03T15:59:06Z</time>
      </trkpt>
      <trkpt lat="50.518233" lon="6.271600">
        <ele>523.000000</ele>
        <time>2008-04-03T15:59:12Z</time>
      </trkpt>
      <trkpt lat="50.518183" lon="6.272183">
        <ele>524.000000</ele>
        <time>2008-04-03T15:59:27Z</time>
      </trkpt>
      <trkpt lat="50.518083" lon="6.272500">
        <ele>524.000000</ele>
        <time>2008-04-03T15:59:36Z</time>
      </trkpt>
      <trkpt lat="50.517950" lon="6.272883">
        <ele>524.000000</ele>
        <time>2008-04-03T15:59:47Z</time>
      </trkpt>
      <trkpt lat="50.517783" lon="6.273250">
        <ele>539.000000</ele>
        <time>2008-04-03T15:59:58Z</time>
      </trkpt>
      <trkpt lat="50.517683" lon="6.273450">
        <ele>539.000000</ele>
        <time>2008-04-03T16:00:05Z</time>
      </trkpt>
      <trkpt lat="50.517450" lon="6.273733">
        <ele>539.000000</ele>
        <time>2008-04-03T16:00:17Z</time>
      </trkpt>
      <trkpt lat="50.517367" lon="6.273883">
        <ele>538.000000</ele>
        <time>2008-04-03T16:00:22Z</time>
      </trkpt>
      <trkpt lat="50.517367" lon="6.274150">
        <ele>538.000000</ele>
        <time>2008-04-03T16:00:29Z</time>
      </trkpt>
      <trkpt lat="50.517400" lon="6.274483">
        <ele>538.000000</ele>
        <time>2008-04-03T16:00:37Z</time>
      </trkpt>
      <trkpt lat="50.517467" lon="6.274817">
        <ele>537.000000</ele>
        <time>2008-04-03T16:00:46Z</time>
      </trkpt>
      <trkpt lat="50.517500" lon="6.275050">
        <ele>537.000000</ele>
        <time>2008-04-03T16:00:52Z</time>
      </trkpt>
      <trkpt lat="50.517483" lon="6.275283">
        <ele>537.000000</ele>
        <time>2008-04-03T16:00:58Z</time>
      </trkpt>
      <trkpt lat="50.517367" lon="6.275800">
        <ele>536.000000</ele>
        <time>2008-04-03T16:01:12Z</time>
      </trkpt>
      <trkpt lat="50.517317" lon="6.276233">
        <ele>536.000000</ele>
        <time>2008-04-03T16:01:23Z</time>
      </trkpt>
      <trkpt lat="50.517317" lon="6.276883">
        <ele>535.000000</ele>
        <time>2008-04-03T16:01:40Z</time>
      </trkpt>
      <trkpt lat="50.517300" lon="6.277517">
        <ele>536.000000</ele>
        <time>2008-04-03T16:01:56Z</time>
      </trkpt>
      <trkpt lat="50.517300" lon="6.277800">
        <ele>536.000000</ele>
        <time>2008-04-03T16:02:03Z</time>
      </trkpt>
      <trkpt lat="50.517217" lon="6.278283">
        <ele>537.000000</ele>
        <time>2008-04-03T16:02:16Z</time>
      </trkpt>
      <trkpt lat="50.517150" lon="6.278583">
        <ele>537.000000</ele>
        <time>2008-04-03T16:02:24Z</time>
      </trkpt>
      <trkpt lat="50.517083" lon="6.278767">
        <ele>550.000000</ele>
        <time>2008-04-03T16:02:29Z</time>
      </trkpt>
      <trkpt lat="50.516900" lon="6.279083">
        <ele>550.000000</ele>
        <time>2008-04-03T16:02:40Z</time>
      </trkpt>
      <trkpt lat="50.516550" lon="6.279600">
        <ele>541.000000</ele>
        <time>2008-04-03T16:03:00Z</time>
      </trkpt>
      <trkpt lat="50.516283" lon="6.280050">
        <ele>541.000000</ele>
        <time>2008-04-03T16:03:15Z</time>
      </trkpt>
      <trkpt lat="50.516067" lon="6.280450">
        <ele>555.000000</ele>
        <time>2008-04-03T16:03:29Z</time>
      </trkpt>
      <trkpt lat="50.515817" lon="6.280917">
        <ele>555.000000</ele>
        <time>2008-04-03T16:03:44Z</time>
      </trkpt>
      <trkpt lat="50.515550" lon="6.281500">
        <ele>549.000000</ele>
        <time>2008-04-03T16:04:02Z</time>
      </trkpt>
      <trkpt lat="50.515483" lon="6.281683">
        <ele>549.000000</ele>
        <time>2008-04-03T16:04:08Z</time>
      </trkpt>
      <trkpt lat="50.515283" lon="6.282833">
        <ele>569.000000</ele>
        <time>2008-04-03T16:04:38Z</time>
      </trkpt>
      <trkpt lat="50.515267" lon="6.283250">
        <ele>565.000000</ele>
        <time>2008-04-03T16:04:49Z</time>
      </trkpt>
      <trkpt lat="50.515317" lon="6.283483">
        <ele>565.000000</ele>
        <time>2008-04-03T16:04:55Z</time>
      </trkpt>
      <trkpt lat="50.515433" lon="6.283883">
        <ele>546.000000</ele>
        <time>2008-04-03T16:05:06Z</time>
      </trkpt>
      <trkpt lat="50.515433" lon="6.284083">
        <ele>546.000000</ele>
        <time>2008-04-03T16:05:11Z</time>
      </trkpt>
      <trkpt lat="50.515317" lon="6.284550">
        <ele>560.000000</ele>
        <time>2008-04-03T16:05:24Z</time>
      </trkpt>
      <trkpt lat="50.515133" lon="6.285133">
        <ele>554.000000</ele>
        <time>2008-04-03T16:05:41Z</time>
      </trkpt>
      <trkpt lat="50.515017" lon="6.285500">
        <ele>548.000000</ele>
        <time>2008-04-03T16:05:51Z</time>
      </trkpt>
      <trkpt lat="50.514917" lon="6.285683">
        <ele>548.000000</ele>
        <time>2008-04-03T16:05:57Z</time>
      </trkpt>
      <trkpt lat="50.514717" lon="6.285900">
        <ele>548.000000</ele>
        <time>2008-04-03T16:06:07Z</time>
      </trkpt>
      <trkpt lat="50.514600" lon="6.285900">
        <ele>548.000000</ele>
        <time>2008-04-03T16:06:12Z</time>
      </trkpt>
      <trkpt lat="50.514433" lon="6.285850">
        <ele>553.000000</ele>
        <time>2008-04-03T16:06:18Z</time>
      </trkpt>
      <trkpt lat="50.514083" lon="6.285633">
        <ele>553.000000</ele>
        <time>2008-04-03T16:06:33Z</time>
      </trkpt>
      <trkpt lat="50.513633" lon="6.285333">
        <ele>559.000000</ele>
        <time>2008-04-03T16:06:53Z</time>
      </trkpt>
      <trkpt lat="50.513467" lon="6.285233">
        <ele>559.000000</ele>
        <time>2008-04-03T16:07:00Z</time>
      </trkpt>
      <trkpt lat="50.513283" lon="6.285167">
        <ele>559.000000</ele>
        <time>2008-04-03T16:07:08Z</time>
      </trkpt>
      <trkpt lat="50.512933" lon="6.286133">
        <ele>554.000000</ele>
        <time>2008-04-03T16:07:36Z</time>
      </trkpt>
      <trkpt lat="50.512833" lon="6.286050">
        <ele>556.000000</ele>
        <time>2008-04-03T16:07:41Z</time>
      </trkpt>
      <trkpt lat="50.512000" lon="6.285133">
        <ele>561.000000</ele>
        <time>2008-04-03T16:08:21Z</time>
      </trkpt>
      <trkpt lat="50.511900" lon="6.285017">
        <ele>561.000000</ele>
        <time>2008-04-03T16:08:26Z</time>
      </trkpt>
      <trkpt lat="50.511767" lon="6.284567">
        <ele>561.000000</ele>
        <time>2008-04-03T16:08:39Z</time>
      </trkpt>
      <trkpt lat="50.511467" lon="6.283133">
        <ele>561.000000</ele>
        <time>2008-04-03T16:09:17Z</time>
      </trkpt>
      <trkpt lat="50.511367" lon="6.282600">
        <ele>562.000000</ele>
        <time>2008-04-03T16:09:31Z</time>
      </trkpt>
      <trkpt lat="50.511350" lon="6.282283">
        <ele>562.000000</ele>
        <time>2008-04-03T16:09:40Z</time>
      </trkpt>
      <trkpt lat="50.511267" lon="6.281500">
        <ele>562.000000</ele>
        <time>2008-04-03T16:10:00Z</time>
      </trkpt>
      <trkpt lat="50.511183" lon="6.280450">
        <ele>575.000000</ele>
        <time>2008-04-03T16:10:27Z</time>
      </trkpt>
      <trkpt lat="50.511100" lon="6.279450">
        <ele>578.000000</ele>
        <time>2008-04-03T16:10:52Z</time>
      </trkpt>
      <trkpt lat="50.511117" lon="6.279083">
        <ele>578.000000</ele>
        <time>2008-04-03T16:11:02Z</time>
      </trkpt>
      <trkpt lat="50.511350" lon="6.278400">
        <ele>580.000000</ele>
        <time>2008-04-03T16:11:21Z</time>
      </trkpt>
      <trkpt lat="50.511917" lon="6.276683">
        <ele>588.000000</ele>
        <time>2008-04-03T16:12:11Z</time>
      </trkpt>
      <trkpt lat="50.512017" lon="6.276467">
        <ele>588.000000</ele>
        <time>2008-04-03T16:12:17Z</time>
      </trkpt>
      <trkpt lat="50.511983" lon="6.276400">
        <ele>588.000000</ele>
        <time>2008-04-03T16:12:20Z</time>
      </trkpt>
      <trkpt lat="50.511033" lon="6.275550">
        <ele>593.000000</ele>
        <time>2008-04-03T16:13:03Z</time>
      </trkpt>
      <trkpt lat="50.509317" lon="6.274067">
        <ele>600.000000</ele>
        <time>2008-04-03T16:14:22Z</time>
      </trkpt>
      <trkpt lat="50.508233" lon="6.273117">
        <ele>597.000000</ele>
        <time>2008-04-03T16:15:11Z</time>
      </trkpt>
      <trkpt lat="50.505783" lon="6.270950">
        <ele>586.000000</ele>
        <time>2008-04-03T16:17:04Z</time>
      </trkpt>
      <trkpt lat="50.505283" lon="6.270533">
        <ele>584.000000</ele>
        <time>2008-04-03T16:17:27Z</time>
      </trkpt>
      <trkpt lat="50.505167" lon="6.270317">
        <ele>583.000000</ele>
        <time>2008-04-03T16:17:34Z</time>
      </trkpt>
      <trkpt lat="50.505100" lon="6.270083">
        <ele>583.000000</ele>
        <time>2008-04-03T16:17:40Z</time>
      </trkpt>
      <trkpt lat="50.505100" lon="6.269917">
        <ele>583.000000</ele>
        <time>2008-04-03T16:17:45Z</time>
      </trkpt>
      <trkpt lat="50.505167" lon="6.269683">
        <ele>583.000000</ele>
        <time>2008-04-03T16:17:51Z</time>
      </trkpt>
      <trkpt lat="50.506933" lon="6.265633">
        <ele>597.000000</ele>
        <time>2008-04-03T16:19:56Z</time>
      </trkpt>
      <trkpt lat="50.508250" lon="6.262650">
        <ele>584.000000</ele>
        <time>2008-04-03T16:21:29Z</time>
      </trkpt>
      <trkpt lat="50.509050" lon="6.260833">
        <ele>575.000000</ele>
        <time>2008-04-03T16:22:25Z</time>
      </trkpt>
      <trkpt lat="50.509433" lon="6.260000">
        <ele>576.000000</ele>
        <time>2008-04-03T16:22:51Z</time>
      </trkpt>
      <trkpt lat="50.509800" lon="6.259333">
        <ele>571.000000</ele>
        <time>2008-04-03T16:23:13Z</time>
      </trkpt>
      <trkpt lat="50.509917" lon="6.258917">
        <ele>571.000000</ele>
        <time>2008-04-03T16:23:25Z</time>
      </trkpt>
      <trkpt lat="50.510033" lon="6.258550">
        <ele>569.000000</ele>
        <time>2008-04-03T16:23:36Z</time>
      </trkpt>
      <trkpt lat="50.510217" lon="6.258167">
        <ele>569.000000</ele>
        <time>2008-04-03T16:23:48Z</time>
      </trkpt>
      <trkpt lat="50.510433" lon="6.257833">
        <ele>563.000000</ele>
        <time>2008-04-03T16:24:00Z</time>
      </trkpt>
      <trkpt lat="50.510717" lon="6.257483">
        <ele>563.000000</ele>
        <time>2008-04-03T16:24:14Z</time>
      </trkpt>
      <trkpt lat="50.510850" lon="6.257250">
        <ele>563.000000</ele>
        <time>2008-04-03T16:24:22Z</time>
      </trkpt>
      <trkpt lat="50.511000" lon="6.256783">
        <ele>558.000000</ele>
        <time>2008-04-03T16:24:36Z</time>
      </trkpt>
      <trkpt lat="50.511017" lon="6.256533">
        <ele>558.000000</ele>
        <time>2008-04-03T16:24:42Z</time>
      </trkpt>
      <trkpt lat="50.511067" lon="6.256167">
        <ele>553.000000</ele>
        <time>2008-04-03T16:24:52Z</time>
      </trkpt>
      <trkpt lat="50.511183" lon="6.255750">
        <ele>553.000000</ele>
        <time>2008-04-03T16:25:03Z</time>
      </trkpt>
      <trkpt lat="50.511333" lon="6.255317">
        <ele>560.000000</ele>
        <time>2008-04-03T16:25:16Z</time>
      </trkpt>
      <trkpt lat="50.511467" lon="6.254683">
        <ele>560.000000</ele>
        <time>2008-04-03T16:25:33Z</time>
      </trkpt>
      <trkpt lat="50.511517" lon="6.254283">
        <ele>552.000000</ele>
        <time>2008-04-03T16:25:43Z</time>
      </trkpt>
      <trkpt lat="50.511500" lon="6.253933">
        <ele>552.000000</ele>
        <time>2008-04-03T16:25:52Z</time>
      </trkpt>
      <trkpt lat="50.511633" lon="6.253367">
        <ele>544.000000</ele>
        <time>2008-04-03T16:26:07Z</time>
      </trkpt>
      <trkpt lat="50.511683" lon="6.252733">
        <ele>534.000000</ele>
        <time>2008-04-03T16:26:24Z</time>
      </trkpt>
      <trkpt lat="50.511750" lon="6.252217">
        <ele>534.000000</ele>
        <time>2008-04-03T16:26:37Z</time>
      </trkpt>
      <trkpt lat="50.511867" lon="6.251717">
        <ele>524.000000</ele>
        <time>2008-04-03T16:26:51Z</time>
      </trkpt>
      <trkpt lat="50.511933" lon="6.251550">
        <ele>524.000000</ele>
        <time>2008-04-03T16:26:56Z</time>
      </trkpt>
      <trkpt lat="50.512083" lon="6.251533">
        <ele>524.000000</ele>
        <time>2008-04-03T16:27:02Z</time>
      </trkpt>
      <trkpt lat="50.512267" lon="6.251683">
        <ele>518.000000</ele>
        <time>2008-04-03T16:27:10Z</time>
      </trkpt>
      <trkpt lat="50.512433" lon="6.251983">
        <ele>518.000000</ele>
        <time>2008-04-03T16:27:20Z</time>
      </trkpt>
      <trkpt lat="50.512767" lon="6.252650">
        <ele>537.000000</ele>
        <time>2008-04-03T16:27:42Z</time>
      </trkpt>
      <trkpt lat="50.513033" lon="6.253150">
        <ele>539.000000</ele>
        <time>2008-04-03T16:27:58Z</time>
      </trkpt>
      <trkpt lat="50.513417" lon="6.253450">
        <ele>539.000000</ele>
        <time>2008-04-03T16:28:15Z</time>
      </trkpt>
      <trkpt lat="50.513850" lon="6.253767">
        <ele>544.000000</ele>
        <time>2008-04-03T16:28:34Z</time>
      </trkpt>
      <trkpt lat="50.514317" lon="6.253950">
        <ele>544.000000</ele>
        <time>2008-04-03T16:28:54Z</time>
      </trkpt>
      <trkpt lat="50.514567" lon="6.254133">
        <ele>544.000000</ele>
        <time>2008-04-03T16:29:05Z</time>
      </trkpt>
      <trkpt lat="50.514750" lon="6.254183">
        <ele>548.000000</ele>
        <time>2008-04-03T16:29:12Z</time>
      </trkpt>
      <trkpt lat="50.514950" lon="6.254083">
        <ele>548.000000</ele>
        <time>2008-04-03T16:29:21Z</time>
      </trkpt>
      <trkpt lat="50.515283" lon="6.253833">
        <ele>548.000000</ele>
        <time>2008-04-03T16:29:35Z</time>
      </trkpt>
      <trkpt lat="50.515417" lon="6.253483">
        <ele>536.000000</ele>
        <time>2008-04-03T16:29:46Z</time>
      </trkpt>
      <trkpt lat="50.515367" lon="6.253150">
        <ele>536.000000</ele>
        <time>2008-04-03T16:29:55Z</time>
      </trkpt>
      <trkpt lat="50.515367" lon="6.252950">
        <ele>536.000000</ele>
        <time>2008-04-03T16:30:00Z</time>
      </trkpt>
      <trkpt lat="50.515433" lon="6.252533">
        <ele>555.000000</ele>
        <time>2008-04-03T16:30:11Z</time>
      </trkpt>
      <trkpt lat="50.515517" lon="6.252117">
        <ele>555.000000</ele>
        <time>2008-04-03T16:30:22Z</time>
      </trkpt>
      <trkpt lat="50.515517" lon="6.251833">
        <ele>554.000000</ele>
        <time>2008-04-03T16:30:29Z</time>
      </trkpt>
      <trkpt lat="50.515500" lon="6.251450">
        <ele>554.000000</ele>
        <time>2008-04-03T16:30:39Z</time>
      </trkpt>
      <trkpt lat="50.515533" lon="6.251233">
        <ele>551.000000</ele>
        <time>2008-04-03T16:30:44Z</time>
      </trkpt>
      <trkpt lat="50.515600" lon="6.250900">
        <ele>551.000000</ele>
        <time>2008-04-03T16:30:53Z</time>
      </trkpt>
      <trkpt lat="50.515583" lon="6.250650">
        <ele>551.000000</ele>
        <time>2008-04-03T16:31:00Z</time>
      </trkpt>
      <trkpt lat="50.515567" lon="6.250417">
        <ele>549.000000</ele>
        <time>2008-04-03T16:31:06Z</time>
      </trkpt>
      <trkpt lat="50.515517" lon="6.250133">
        <ele>549.000000</ele>
        <time>2008-04-03T16:31:13Z</time>
      </trkpt>
      <trkpt lat="50.515550" lon="6.249933">
        <ele>549.000000</ele>
        <time>2008-04-03T16:31:18Z</time>
      </trkpt>
      <trkpt lat="50.515667" lon="6.249717">
        <ele>549.000000</ele>
        <time>2008-04-03T16:31:26Z</time>
      </trkpt>
      <trkpt lat="50.515833" lon="6.249650">
        <ele>549.000000</ele>
        <time>2008-04-03T16:31:32Z</time>
      </trkpt>
      <trkpt lat="50.516200" lon="6.249800">
        <ele>549.000000</ele>
        <time>2008-04-03T16:31:48Z</time>
      </trkpt>
      <trkpt lat="50.516850" lon="6.250150">
        <ele>549.000000</ele>
        <time>2008-04-03T16:32:15Z</time>
      </trkpt>
      <trkpt lat="50.517250" lon="6.250383">
        <ele>533.000000</ele>
        <time>2008-04-03T16:32:32Z</time>
      </trkpt>
      <trkpt lat="50.517617" lon="6.250683">
        <ele>550.000000</ele>
        <time>2008-04-03T16:32:49Z</time>
      </trkpt>
      <trkpt lat="50.517933" lon="6.251067">
        <ele>530.000000</ele>
        <time>2008-04-03T16:33:05Z</time>
      </trkpt>
      <trkpt lat="50.518183" lon="6.251317">
        <ele>549.000000</ele>
        <time>2008-04-03T16:33:17Z</time>
      </trkpt>
      <trkpt lat="50.518550" lon="6.251550">
        <ele>549.000000</ele>
        <time>2008-04-03T16:33:32Z</time>
      </trkpt>
      <trkpt lat="50.519033" lon="6.251783">
        <ele>535.000000</ele>
        <time>2008-04-03T16:33:53Z</time>
      </trkpt>
      <trkpt lat="50.519400" lon="6.251833">
        <ele>535.000000</ele>
        <time>2008-04-03T16:34:07Z</time>
      </trkpt>
      <trkpt lat="50.519833" lon="6.251917">
        <ele>521.000000</ele>
        <time>2008-04-03T16:34:25Z</time>
      </trkpt>
      <trkpt lat="50.520283" lon="6.252000">
        <ele>521.000000</ele>
        <time>2008-04-03T16:34:43Z</time>
      </trkpt>
      <trkpt lat="50.520617" lon="6.252200">
        <ele>528.000000</ele>
        <time>2008-04-03T16:34:57Z</time>
      </trkpt>
      <trkpt lat="50.520967" lon="6.252400">
        <ele>528.000000</ele>
        <time>2008-04-03T16:35:12Z</time>
      </trkpt>
      <trkpt lat="50.521517" lon="6.252867">
        <ele>516.000000</ele>
        <time>2008-04-03T16:35:37Z</time>
      </trkpt>
      <trkpt lat="50.521917" lon="6.253233">
        <ele>526.000000</ele>
        <time>2008-04-03T16:35:56Z</time>
      </trkpt>
      <trkpt lat="50.522133" lon="6.253433">
        <ele>506.000000</ele>
        <time>2008-04-03T16:36:06Z</time>
      </trkpt>
      <trkpt lat="50.522367" lon="6.253700">
        <ele>506.000000</ele>
        <time>2008-04-03T16:36:17Z</time>
      </trkpt>
      <trkpt lat="50.522667" lon="6.254117">
        <ele>512.000000</ele>
        <time>2008-04-03T16:36:33Z</time>
      </trkpt>
      <trkpt lat="50.523033" lon="6.254800">
        <ele>499.000000</ele>
        <time>2008-04-03T16:36:56Z</time>
      </trkpt>
      <trkpt lat="50.523183" lon="6.255033">
        <ele>499.000000</ele>
        <time>2008-04-03T16:37:05Z</time>
      </trkpt>
      <trkpt lat="50.523317" lon="6.255400">
        <ele>499.000000</ele>
        <time>2008-04-03T16:37:15Z</time>
      </trkpt>
      <trkpt lat="50.523333" lon="6.255683">
        <ele>499.000000</ele>
        <time>2008-04-03T16:37:23Z</time>
      </trkpt>
      <trkpt lat="50.523367" lon="6.255983">
        <ele>499.000000</ele>
        <time>2008-04-03T16:37:30Z</time>
      </trkpt>
      <trkpt lat="50.523400" lon="6.256117">
        <ele>499.000000</ele>
        <time>2008-04-03T16:37:34Z</time>
      </trkpt>
      <trkpt lat="50.523367" lon="6.256300">
        <ele>498.000000</ele>
        <time>2008-04-03T16:37:39Z</time>
      </trkpt>
    </trkseg>
  </trk>

</gpx>
